createdAt,value
2022-07-29T00:01:33.127Z,26.18
2022-07-29T00:04:01.495Z,26.08
2022-07-29T00:06:29.997Z,26.13
2022-07-29T00:08:58.272Z,26.12
2022-07-29T00:11:27.968Z,26.15
2022-07-29T00:13:56.253Z,26.05
2022-07-29T00:16:25.021Z,26.10
2022-07-29T00:18:53.376Z,26.15
2022-07-29T00:21:21.813Z,26.15
2022-07-29T00:23:50.144Z,26.16
2022-07-29T00:26:18.488Z,26.14
2022-07-29T00:28:48.325Z,26.11
2022-07-29T00:31:16.843Z,26.08
2022-07-29T00:33:45.158Z,26.14
2022-07-29T00:36:12.459Z,26.11
2022-07-29T00:38:42.519Z,26.07
2022-07-29T00:41:10.866Z,26.08
2022-07-29T00:43:39.490Z,26.06
2022-07-29T00:46:09.246Z,26.06
2022-07-29T00:48:38.266Z,25.99
2022-07-29T00:51:08.497Z,26.00
2022-07-29T00:53:37.774Z,26.03
2022-07-29T00:56:06.173Z,26.01
2022-07-29T00:58:34.724Z,25.95
2022-07-29T01:01:03.164Z,25.93
2022-07-29T01:03:32.960Z,25.93
2022-07-29T01:06:01.694Z,25.97
2022-07-29T01:08:30.188Z,25.96
2022-07-29T01:10:58.669Z,26.00
2022-07-29T01:13:27.598Z,26.07
2022-07-29T01:15:59.162Z,26.03
2022-07-29T01:18:34.366Z,26.02
2022-07-29T01:21:34.339Z,26.04
2022-07-29T01:24:18.209Z,26.05
2022-07-29T01:26:49.375Z,26.09
2022-07-29T01:29:26.390Z,26.10
2022-07-29T01:32:01.426Z,26.06
2022-07-29T01:34:34.605Z,26.05
2022-07-29T01:37:07.401Z,26.01
2022-07-29T01:39:37.528Z,26.02
2022-07-29T01:42:12.716Z,26.07
2022-07-29T01:44:48.280Z,26.05
2022-07-29T01:47:22.346Z,26.00
2022-07-29T01:49:53.239Z,26.07
2022-07-29T01:52:24.023Z,26.05
2022-07-29T01:54:56.121Z,26.01
2022-07-29T01:57:27.411Z,26.07
2022-07-29T01:59:58.443Z,26.08
2022-07-29T02:02:28.536Z,26.01
2022-07-29T02:04:57.542Z,25.99
2022-07-29T02:07:26.927Z,26.01
2022-07-29T02:09:55.846Z,25.98
2022-07-29T02:12:24.664Z,25.97
2022-07-29T02:14:55.723Z,26.02
2022-07-29T02:17:30.041Z,25.98
2022-07-29T02:20:01.327Z,25.93
2022-07-29T02:22:32.480Z,25.94
2022-07-29T02:25:01.121Z,25.91
2022-07-29T02:27:31.852Z,25.97
2022-07-29T02:30:01.315Z,25.98
2022-07-29T02:32:31.691Z,25.91
2022-07-29T02:35:00.887Z,25.84
2022-07-29T02:37:30.116Z,25.86
2022-07-29T02:39:59.620Z,25.84
2022-07-29T02:42:29.892Z,25.80
2022-07-29T02:44:58.517Z,25.85
2022-07-29T02:47:41.911Z,25.86
2022-07-29T02:50:14.504Z,25.82
2022-07-29T02:52:45.859Z,25.87
2022-07-29T02:55:18.560Z,25.89
2022-07-29T02:57:54.679Z,25.90
2022-07-29T03:00:24.728Z,25.91
2022-07-29T03:02:56.131Z,25.89
2022-07-29T03:05:24.736Z,25.90
2022-07-29T03:07:57.439Z,25.85
2022-07-29T03:10:27.355Z,25.86
2022-07-29T03:12:56.550Z,25.90
2022-07-29T03:15:25.440Z,25.81
2022-07-29T03:17:56.535Z,25.82
2022-07-29T03:20:25.074Z,25.84
2022-07-29T03:22:53.555Z,25.84
2022-07-29T03:25:22.637Z,25.82
2022-07-29T03:27:51.144Z,25.82
2022-07-29T03:30:22.357Z,25.77
2022-07-29T03:32:52.454Z,25.83
2022-07-29T03:35:22.448Z,25.83
2022-07-29T03:37:51.010Z,25.83
2022-07-29T03:40:24.190Z,25.86
2022-07-29T03:42:54.202Z,25.83
2022-07-29T03:45:23.623Z,25.81
2022-07-29T03:48:00.866Z,25.79
2022-07-29T03:50:31.315Z,25.77
2022-07-29T03:52:59.939Z,25.78
2022-07-29T03:55:31.016Z,25.82
2022-07-29T03:57:59.634Z,25.80
2022-07-29T04:00:29.338Z,25.78
2022-07-29T04:02:58.339Z,25.77
2022-07-29T04:05:26.894Z,25.80
2022-07-29T04:07:56.602Z,25.80
2022-07-29T04:10:31.651Z,25.81
2022-07-29T04:13:00.846Z,25.79
2022-07-29T04:15:30.902Z,25.75
2022-07-29T04:18:00.787Z,25.76
2022-07-29T04:20:29.462Z,25.73
2022-07-29T04:22:59.180Z,25.73
2022-07-29T04:25:27.463Z,25.75
2022-07-29T04:28:04.905Z,25.77
2022-07-29T04:30:34.453Z,25.77
2022-07-29T04:33:03.392Z,25.68
2022-07-29T04:35:38.413Z,25.48
2022-07-29T04:38:15.877Z,25.36
2022-07-29T04:40:47.164Z,25.29
2022-07-29T04:43:22.391Z,25.26
2022-07-29T04:45:51.592Z,25.23
2022-07-29T04:48:24.018Z,25.14
2022-07-29T04:50:56.823Z,25.11
2022-07-29T04:53:27.452Z,25.09
2022-07-29T04:55:55.859Z,25.10
2022-07-29T04:58:25.048Z,25.04
2022-07-29T05:00:53.437Z,25.01
2022-07-29T05:03:21.821Z,25.01
2022-07-29T05:05:50.167Z,24.97
2022-07-29T05:08:18.591Z,24.94
2022-07-29T05:10:48.985Z,24.97
2022-07-29T05:13:17.568Z,24.96
2022-07-29T05:15:45.992Z,24.95
2022-07-29T05:18:15.056Z,24.93
2022-07-29T05:20:43.693Z,24.92
2022-07-29T05:23:13.637Z,24.92
2022-07-29T05:25:43.454Z,24.85
2022-07-29T05:28:15.125Z,24.86
2022-07-29T05:30:45.737Z,24.89
2022-07-29T05:33:34.664Z,24.89
2022-07-29T05:36:02.745Z,24.87
2022-07-29T05:38:31.631Z,24.84
2022-07-29T05:41:00.858Z,24.79
2022-07-29T05:43:31.012Z,24.78
2022-07-29T05:46:00.278Z,24.76
2022-07-29T05:48:29.300Z,24.78
2022-07-29T05:50:58.197Z,24.79
2022-07-29T05:53:26.750Z,24.77
2022-07-29T05:55:55.663Z,24.77
2022-07-29T05:58:24.335Z,24.79
2022-07-29T06:00:54.974Z,24.78
2022-07-29T06:03:23.540Z,24.76
2022-07-29T06:05:52.388Z,24.82
2022-07-29T06:08:21.231Z,24.86
2022-07-29T06:10:49.897Z,24.92
2022-07-29T06:13:18.594Z,24.81
2022-07-29T06:15:47.312Z,24.77
2022-07-29T06:18:17.344Z,24.85
2022-07-29T06:20:46.197Z,24.80
2022-07-29T06:23:14.716Z,24.80
2022-07-29T06:25:43.492Z,24.85
2022-07-29T06:28:12.163Z,24.87
2022-07-29T06:30:41.315Z,24.84
2022-07-29T06:33:10.090Z,24.82
2022-07-29T06:35:41.983Z,24.78
2022-07-29T06:38:30.122Z,24.86
2022-07-29T06:41:03.938Z,24.86
2022-07-29T06:43:35.045Z,24.94
2022-07-29T06:46:05.259Z,24.94
2022-07-29T06:48:34.639Z,24.93
2022-07-29T06:51:04.937Z,24.96
2022-07-29T06:53:34.331Z,24.94
2022-07-29T06:56:03.428Z,24.92
2022-07-29T06:58:32.330Z,24.95
2022-07-29T07:01:03.578Z,25.05
2022-07-29T07:03:32.228Z,25.02
2022-07-29T07:06:00.960Z,24.99
2022-07-29T07:08:30.866Z,24.92
2022-07-29T07:10:59.563Z,24.97
2022-07-29T07:13:29.068Z,25.02
2022-07-29T07:15:57.523Z,25.12
2022-07-29T07:18:26.155Z,25.10
2022-07-29T07:20:54.684Z,24.99
2022-07-29T07:23:23.289Z,25.00
2022-07-29T07:25:53.220Z,25.10
2022-07-29T07:28:25.056Z,25.13
2022-07-29T07:30:53.963Z,25.19
2022-07-29T07:33:22.602Z,25.17
2022-07-29T07:35:52.078Z,25.14
2022-07-29T07:38:21.077Z,25.08
2022-07-29T07:40:49.585Z,25.11
2022-07-29T07:43:19.710Z,25.13
2022-07-29T07:45:48.428Z,25.09
2022-07-29T07:48:16.923Z,25.11
2022-07-29T07:50:48.606Z,25.13
2022-07-29T07:53:17.318Z,25.16
2022-07-29T07:58:37.472Z,25.23
2022-07-29T08:01:06.313Z,25.23
2022-07-29T08:03:35.155Z,25.21
2022-07-29T08:06:03.911Z,25.25
2022-07-29T08:08:32.627Z,25.26
2022-07-29T08:11:09.151Z,25.27
2022-07-29T08:14:06.570Z,25.21
2022-07-29T08:16:36.360Z,25.21
2022-07-29T08:19:04.894Z,25.27
2022-07-29T08:21:33.331Z,25.16
2022-07-29T08:24:15.640Z,25.10
2022-07-29T08:26:44.176Z,24.99
2022-07-29T08:29:15.954Z,25.18
2022-07-29T08:31:48.142Z,25.24
2022-07-29T08:34:16.686Z,25.26
2022-07-29T08:36:45.032Z,25.31
2022-07-29T08:39:19.177Z,25.29
2022-07-29T08:41:57.186Z,25.20
2022-07-29T08:44:30.426Z,25.33
2022-07-29T08:50:46.386Z,25.23
2022-07-29T08:53:16.472Z,25.36
2022-07-29T08:55:46.097Z,25.53
2022-07-29T08:58:15.693Z,25.66
2022-07-29T09:00:46.275Z,25.67
2022-07-29T09:03:19.181Z,25.63
2022-07-29T09:05:48.526Z,25.46
2022-07-29T09:08:17.735Z,25.45
2022-07-29T09:10:46.811Z,25.42
2022-07-29T09:13:15.086Z,25.53
2022-07-29T09:15:43.520Z,25.61
2022-07-29T09:18:19.580Z,25.60
2022-07-29T09:21:17.860Z,25.60
2022-07-29T09:24:01.818Z,25.60
2022-07-29T09:26:30.965Z,25.47
2022-07-29T09:29:00.659Z,25.74
2022-07-29T09:31:35.852Z,25.57
2022-07-29T09:34:05.130Z,25.76
2022-07-29T09:36:40.942Z,25.73
2022-07-29T09:39:09.467Z,25.85
2022-07-29T09:41:48.843Z,25.92
2022-07-29T09:44:17.920Z,25.63
2022-07-29T09:47:07.048Z,25.79
2022-07-29T09:49:36.161Z,26.04
2022-07-29T09:52:12.106Z,26.12
2022-07-29T09:54:40.506Z,26.23
2022-07-29T09:57:13.342Z,26.35
2022-07-29T09:59:58.015Z,26.33
2022-07-29T10:02:30.787Z,26.28
2022-07-29T10:04:59.270Z,26.30
2022-07-29T10:07:45.180Z,26.37
2022-07-29T10:10:20.915Z,26.35
2022-07-29T10:12:54.830Z,26.43
2022-07-29T10:15:24.699Z,26.42
2022-07-29T10:17:53.891Z,26.41
2022-07-29T10:20:22.948Z,26.38
2022-07-29T10:22:54.089Z,26.43
2022-07-29T10:25:27.121Z,26.38
2022-07-29T10:27:56.002Z,26.26
2022-07-29T10:30:26.231Z,26.39
2022-07-29T10:33:17.691Z,26.47
2022-07-29T10:35:53.745Z,26.58
2022-07-29T10:38:48.282Z,26.57
2022-07-29T10:41:43.656Z,26.62
2022-07-29T10:44:19.316Z,26.67
2022-07-29T10:46:48.898Z,26.72
2022-07-29T10:49:18.474Z,26.59
2022-07-29T10:51:55.843Z,26.70
2022-07-29T10:54:50.959Z,26.47
2022-07-29T10:57:53.926Z,26.66
2022-07-29T11:00:34.082Z,26.82
2022-07-29T11:03:04.559Z,27.00
2022-07-29T11:05:55.356Z,26.96
2022-07-29T11:08:27.761Z,26.96
2022-07-29T11:11:33.525Z,27.03
2022-07-29T11:14:03.369Z,27.14
2022-07-29T11:17:06.297Z,27.09
2022-07-29T11:19:37.195Z,27.26
2022-07-29T11:22:10.825Z,27.37
2022-07-29T11:24:39.544Z,27.42
2022-07-29T11:27:23.068Z,27.42
2022-07-29T11:30:07.025Z,27.32
2022-07-29T11:32:38.994Z,27.28
2022-07-29T11:35:27.725Z,27.60
2022-07-29T11:38:28.375Z,27.37
2022-07-29T11:41:28.674Z,27.31
2022-07-29T11:43:59.505Z,27.67
2022-07-29T11:46:48.063Z,27.49
2022-07-29T11:49:22.113Z,27.61
2022-07-29T11:52:03.837Z,27.59
2022-07-29T11:54:38.874Z,27.88
2022-07-29T11:57:36.397Z,27.88
2022-07-29T12:03:00.270Z,27.81
2022-07-29T12:05:48.254Z,27.96
2022-07-29T12:08:22.774Z,28.15
2022-07-29T12:10:52.452Z,28.10
2022-07-29T12:13:23.038Z,28.17
2022-07-29T12:16:07.541Z,28.13
2022-07-29T12:18:35.989Z,28.08
2022-07-29T12:21:05.792Z,27.94
2022-07-29T12:23:35.604Z,27.79
2022-07-29T12:26:07.691Z,28.12
2022-07-29T12:28:40.274Z,28.34
2022-07-29T12:31:41.740Z,28.32
2022-07-29T12:34:03.973Z,28.12
2022-07-29T12:36:32.529Z,28.14
2022-07-29T12:39:01.111Z,28.12
2022-07-29T12:41:29.910Z,28.00
2022-07-29T12:43:58.513Z,28.10
2022-07-29T12:46:28.458Z,28.03
2022-07-29T12:48:57.726Z,28.15
2022-07-29T12:51:33.959Z,28.19
2022-07-29T12:54:07.873Z,28.23
2022-07-29T12:56:44.991Z,28.35
2022-07-29T12:59:15.647Z,28.14
2022-07-29T13:01:45.574Z,28.20
2022-07-29T13:04:26.283Z,28.10
2022-07-29T13:07:00.780Z,28.18
2022-07-29T13:09:39.196Z,28.16
2022-07-29T13:12:09.299Z,28.13
2022-07-29T13:14:39.854Z,28.17
2022-07-29T13:17:11.616Z,28.05
2022-07-29T13:19:42.270Z,28.25
2022-07-29T13:22:11.332Z,28.39
2022-07-29T13:24:52.743Z,28.39
2022-07-29T13:27:22.429Z,28.22
2022-07-29T13:29:53.424Z,28.12
2022-07-29T13:32:28.231Z,27.78
2022-07-29T13:34:57.631Z,27.73
2022-07-29T13:37:26.880Z,27.84
2022-07-29T13:39:56.837Z,27.57
2022-07-29T13:42:25.744Z,27.54
2022-07-29T13:44:54.705Z,27.77
2022-07-29T13:47:32.466Z,27.92
2022-07-29T13:50:02.187Z,28.00
2022-07-29T13:52:30.662Z,28.06
2022-07-29T13:54:59.223Z,28.08
2022-07-29T13:57:27.563Z,28.05
2022-07-29T13:59:55.911Z,27.99
2022-07-29T14:02:26.365Z,27.87
2022-07-29T14:04:55.504Z,27.75
2022-07-29T14:07:24.357Z,27.63
2022-07-29T14:09:52.892Z,27.63
2022-07-29T14:12:22.042Z,27.37
2022-07-29T14:14:51.076Z,27.33
2022-07-29T14:17:19.525Z,27.19
2022-07-29T14:19:49.225Z,27.28
2022-07-29T14:22:19.856Z,27.41
2022-07-29T14:24:50.586Z,27.26
2022-07-29T14:27:20.007Z,27.16
2022-07-29T14:30:07.654Z,27.12
2022-07-29T14:32:35.976Z,27.35
2022-07-29T14:35:06.465Z,27.37
2022-07-29T14:37:39.878Z,27.25
2022-07-29T14:40:10.482Z,27.31
2022-07-29T14:42:39.853Z,27.42
2022-07-29T14:45:09.669Z,27.43
2022-07-29T14:47:39.020Z,27.47
2022-07-29T14:50:11.239Z,27.47
2022-07-29T14:52:41.477Z,27.14
2022-07-29T14:55:19.359Z,26.85
2022-07-29T14:57:49.105Z,27.09
2022-07-29T15:00:18.078Z,27.06
2022-07-29T15:03:01.495Z,27.20
2022-07-29T15:05:32.361Z,27.31
2022-07-29T15:08:01.261Z,27.31
2022-07-29T15:10:29.903Z,27.22
2022-07-29T15:12:58.376Z,27.04
2022-07-29T15:15:26.970Z,27.01
2022-07-29T15:17:55.453Z,27.17
2022-07-29T15:20:26.135Z,27.28
2022-07-29T15:22:56.831Z,27.24
2022-07-29T15:25:25.512Z,27.22
2022-07-29T15:28:00.962Z,27.24
2022-07-29T15:30:33.385Z,27.25
2022-07-29T15:33:03.854Z,27.29
2022-07-29T15:35:32.285Z,27.30
2022-07-29T15:38:02.142Z,27.25
2022-07-29T15:40:30.552Z,27.24
2022-07-29T15:43:01.708Z,27.17
2022-07-29T15:45:32.016Z,27.24
2022-07-29T15:48:01.428Z,27.19
2022-07-29T15:50:29.787Z,27.09
2022-07-29T15:52:58.091Z,27.13
2022-07-29T15:55:27.986Z,27.00
2022-07-29T15:58:00.488Z,27.02
2022-07-29T16:00:29.312Z,26.99
2022-07-29T16:02:57.771Z,27.10
2022-07-29T16:05:26.446Z,27.14
2022-07-29T16:07:54.792Z,27.14
2022-07-29T16:10:23.335Z,27.06
2022-07-29T16:12:53.128Z,27.23
2022-07-29T16:15:21.587Z,27.30
2022-07-29T16:17:50.416Z,27.31
2022-07-29T16:20:18.827Z,27.34
2022-07-29T16:22:47.141Z,27.36
2022-07-29T16:25:15.454Z,27.36
2022-07-29T16:27:43.755Z,27.33
2022-07-29T16:30:13.951Z,27.33
2022-07-29T16:32:42.372Z,27.33
2022-07-29T16:35:11.081Z,27.33
2022-07-29T16:37:39.494Z,27.32
2022-07-29T16:40:11.487Z,27.29
2022-07-29T16:42:48.023Z,27.26
2022-07-29T16:45:19.869Z,27.22
2022-07-29T16:47:49.963Z,27.13
2022-07-29T16:50:18.517Z,26.69
2022-07-29T16:52:46.838Z,26.14
2022-07-29T16:55:15.312Z,26.29
2022-07-29T16:57:43.841Z,26.49
2022-07-29T17:00:14.360Z,26.53
2022-07-29T17:02:44.207Z,26.54
2022-07-29T17:05:13.380Z,26.45
2022-07-29T17:07:41.929Z,26.35
2022-07-29T17:10:11.299Z,26.22
2022-07-29T17:12:41.042Z,26.31
2022-07-29T17:15:11.214Z,26.28
2022-07-29T17:17:55.134Z,26.19
2022-07-29T17:20:27.302Z,26.23
2022-07-29T17:22:55.849Z,26.22
2022-07-29T17:25:24.818Z,26.13
2022-07-29T17:27:57.536Z,26.17
2022-07-29T17:30:28.768Z,26.16
2022-07-29T17:32:57.282Z,26.10
2022-07-29T17:35:53.423Z,26.16
2022-07-29T17:38:21.755Z,25.96
2022-07-29T17:40:50.112Z,25.88
2022-07-29T17:43:18.443Z,25.76
2022-07-29T17:45:50.287Z,25.61
2022-07-29T17:48:19.854Z,25.45
2022-07-29T17:50:49.979Z,25.46
2022-07-29T17:53:18.508Z,25.42
2022-07-29T17:55:48.650Z,25.34
2022-07-29T17:58:17.635Z,25.38
2022-07-29T18:00:46.061Z,25.44
2022-07-29T18:03:14.672Z,25.32
2022-07-29T18:05:43.367Z,25.41
2022-07-29T18:08:14.192Z,25.34
2022-07-29T18:10:42.512Z,25.15
2022-07-29T18:13:12.544Z,25.18
2022-07-29T18:15:41.313Z,25.19
2022-07-29T18:18:10.018Z,25.16
2022-07-29T18:20:38.547Z,25.11
2022-07-29T18:23:07.009Z,25.29
2022-07-29T18:25:36.839Z,25.20
2022-07-29T18:28:05.688Z,25.18
2022-07-29T18:30:36.725Z,25.30
2022-07-29T18:33:20.750Z,25.26
2022-07-29T18:35:51.786Z,25.28
2022-07-29T18:38:21.814Z,25.37
2022-07-29T18:40:51.747Z,25.33
2022-07-29T18:43:20.096Z,25.34
2022-07-29T18:45:49.646Z,25.43
2022-07-29T18:48:18.753Z,25.38
2022-07-29T18:50:47.105Z,25.36
2022-07-29T18:53:15.476Z,25.38
2022-07-29T18:55:44.049Z,25.30
2022-07-29T18:58:13.726Z,25.32
2022-07-29T19:00:42.175Z,25.29
2022-07-29T19:03:11.219Z,25.23
2022-07-29T19:05:39.875Z,25.27
2022-07-29T19:08:08.254Z,25.20
2022-07-29T19:10:36.595Z,25.14
2022-07-29T19:13:05.388Z,25.02
2022-07-29T19:15:35.233Z,24.89
2022-07-29T19:18:04.418Z,24.92
2022-07-29T19:20:32.748Z,25.10
2022-07-29T19:23:01.115Z,25.16
2022-07-29T19:25:29.506Z,25.11
2022-07-29T19:27:58.507Z,25.00
2022-07-29T19:30:27.607Z,24.98
2022-07-29T19:32:57.330Z,24.80
2022-07-29T19:35:28.114Z,24.84
2022-07-29T19:37:57.101Z,24.88
2022-07-29T19:40:26.692Z,24.80
2022-07-29T19:42:55.513Z,24.77
2022-07-29T19:45:25.712Z,24.80
2022-07-29T19:47:59.052Z,24.86
2022-07-29T19:50:30.799Z,24.86
2022-07-29T19:52:59.530Z,24.85
2022-07-29T19:55:28.086Z,24.88
2022-07-29T19:57:56.666Z,24.86
2022-07-29T20:00:25.914Z,24.84
2022-07-29T20:02:54.394Z,24.86
2022-07-29T20:05:27.864Z,24.88
2022-07-29T20:07:58.636Z,25.02
2022-07-29T20:10:27.095Z,25.15
2022-07-29T20:12:55.679Z,25.22
2022-07-29T20:15:24.553Z,25.26
2022-07-29T20:17:57.173Z,25.25
2022-07-29T20:20:26.283Z,25.27
2022-07-29T20:22:54.877Z,25.31
2022-07-29T20:25:24.947Z,25.30
2022-07-29T20:27:54.256Z,25.25
2022-07-29T20:30:23.351Z,25.24
2022-07-29T20:32:51.807Z,25.22
2022-07-29T20:35:22.290Z,25.26
2022-07-29T20:37:55.572Z,25.27
2022-07-29T20:40:27.228Z,25.30
2022-07-29T20:42:55.890Z,25.32
2022-07-29T20:45:24.814Z,25.34
2022-07-29T20:47:53.455Z,25.29
2022-07-29T20:50:24.116Z,25.32
2022-07-29T20:52:53.234Z,25.28
2022-07-29T20:55:22.118Z,25.30
2022-07-29T20:57:51.940Z,25.31
2022-07-29T21:00:20.323Z,25.32
2022-07-29T21:02:48.705Z,25.34
2022-07-29T21:05:17.185Z,25.35
2022-07-29T21:07:45.553Z,25.29
2022-07-29T21:10:14.273Z,25.24
2022-07-29T21:12:43.109Z,25.29
2022-07-29T21:15:14.083Z,25.34
2022-07-29T21:17:47.517Z,25.34
2022-07-29T21:20:16.609Z,25.31
2022-07-29T21:22:45.784Z,25.28
2022-07-29T21:25:14.312Z,25.33
2022-07-29T21:28:00.201Z,25.32
2022-07-29T21:30:29.950Z,25.35
2022-07-29T21:32:58.354Z,25.35
2022-07-29T21:35:31.380Z,25.33
2022-07-29T21:38:19.235Z,25.42
2022-07-29T21:40:49.429Z,25.41
2022-07-29T21:43:18.327Z,25.42
2022-07-29T21:45:50.224Z,25.41
2022-07-29T21:48:19.884Z,25.38
2022-07-29T21:50:48.916Z,25.37
2022-07-29T21:53:17.488Z,25.32
2022-07-29T21:55:51.493Z,25.32
2022-07-29T21:58:22.931Z,25.33
2022-07-29T22:00:52.898Z,25.39
2022-07-29T22:03:21.353Z,25.42
2022-07-29T22:05:49.675Z,25.43
2022-07-29T22:08:17.999Z,25.40
2022-07-29T22:10:46.480Z,25.37
2022-07-29T22:13:14.859Z,25.40
2022-07-29T22:15:47.071Z,25.42
2022-07-29T22:18:21.010Z,25.42
2022-07-29T22:20:49.900Z,25.42
2022-07-29T22:23:18.289Z,25.43
2022-07-29T22:25:46.748Z,25.40
2022-07-29T22:28:15.197Z,25.40
2022-07-29T22:30:43.620Z,25.40
2022-07-29T22:33:16.912Z,25.41
2022-07-29T22:35:48.554Z,25.41
2022-07-29T22:38:17.647Z,25.41
2022-07-29T22:40:46.903Z,25.40
2022-07-29T22:43:17.218Z,25.40
2022-07-29T22:45:45.668Z,25.37
2022-07-29T22:48:14.091Z,25.36
2022-07-29T22:50:42.712Z,25.37
2022-07-29T22:53:12.794Z,25.37
2022-07-29T22:55:41.341Z,25.37
2022-07-29T22:58:09.828Z,25.38
2022-07-29T23:00:38.694Z,25.36
2022-07-29T23:03:07.083Z,25.34
2022-07-29T23:05:35.676Z,25.36
2022-07-29T23:08:04.288Z,25.34
2022-07-29T23:10:34.073Z,25.32
2022-07-29T23:13:02.490Z,25.30
2022-07-29T23:15:30.940Z,25.30
2022-07-29T23:17:59.266Z,25.29
2022-07-29T23:20:27.691Z,25.28
2022-07-29T23:22:56.242Z,25.27
2022-07-29T23:25:24.718Z,25.26
2022-07-29T23:27:54.434Z,25.26
2022-07-29T23:30:22.844Z,25.27
2022-07-29T23:32:51.309Z,25.21
2022-07-29T23:35:19.948Z,25.21
2022-07-29T23:37:48.344Z,25.20
2022-07-29T23:40:16.952Z,25.23
2022-07-29T23:42:45.357Z,25.22
2022-07-29T23:45:15.140Z,25.21
2022-07-29T23:47:43.870Z,25.15
2022-07-29T23:50:13.167Z,25.14
2022-07-29T23:52:42.007Z,25.16
2022-07-29T23:55:37.780Z,25.16
2022-07-29T23:57:59.951Z,25.15
